Oro Valley, AZ (85737)

10:42 AM MST on August 28, 2015 (GMT -0700)
Oro Valley Town Hall | | Change Station
CLOSE
Current Station
Personal Weather Station
Location: Oro Valley, AZ
Elevation: 2717 ft
Nearby Weather Stations

Elev 2717 ft 32.41 °N, 111.00 °W | Updated 2 minutes ago

Clear
Clear
87.5 °F
Feels Like 89 °F
N
3.3
Wind Variable Wind from East
Gusts 5.4 mph

Today
High -- | Low -- °F
--% Chance of Precip.
Yesterday
High -- | Low -- °F
Precip. -- in
5:56 AM 6:53 PM
Waxing Gibbous, 98% visible
Pressure 29.90 in
Visibility 10.0 miles
Clouds Clear
Heat Index 89 °F
Dew Point 65 °F
Humidity 46%
Rainfall Not available.
Snow Depth Not available.
UV 8 out of 12
Pollen 5.30 out of 12
Air Quality Not available.
Flu Activity Not available.
METAR KDMA 281658Z AUTO 16004KT 10SM CLR 30/15 A3003 RMK AO2 SLP125 T03030153 $
Pressure 29.90 in
Visibility 10.0 miles
Clouds Clear
Heat Index 89 °F
Dew Point 65 °F
Humidity 46%
Rainfall Not available.
Snow Depth Not available.
UV 8 out of 12
Pollen 5.30 out of 12
Air Quality Not available.
Flu Activity Not available.
METAR KDMA 281658Z AUTO 16004KT 10SM CLR 30/15 A3003 RMK AO2 SLP125 T03030153 $

10-Day Weather Forecast

×

Almanac

Astronomy

Aug. 28, 2015 Rise Set
Actual Time
Civil Twilight
Nautical Twilight
Astronomical Twilight
Moon
Length of Visible Light
Length of Day
Tomorrow will be .
, % of the Moon is Illuminated

Today's Extremes

State Highs State Lows

Community

WunderPhotos

Upload Photos

1,850,444 photos uploaded!

WunderBlogs® & News

Nearby

Air Quality

  Air Quality AQ Index Pollutant
Not available.

Snow Depth

Station Depth Elevation

Earthquake Activity

City Distance Mag. Time & Date
Minimum magnitude displayed is 2.5.

Coastal Water Temperatures

Place Temperature

Stations

Nearby Weather Stations

Station Location Temp. Windchill Dew Point Humidity Wind Precip. Elev Updated Type